Time;durP1;ratioP1;P1;durP2;ratioP2;P2;SDS_P1;SDS_P2;PMS_P1;PMS_P2;Temp;Humidity;BMP_temperature;BMP_pressure;BME280_temperature;BME280_humidity;BME280_pressure;Samples;Min_cycle;Max_cycle;Signal;HPM_P1;HPM_P2
2022/02/08 00:01:16;;;;;;;6.33;2.77;;;4.90;99.90;;;;;;5054320;28;20174;-58
2022/02/08 00:03:43;;;;;;;3.67;2.15;;;4.80;99.90;;;;;;5060080;28;20209;-59
2022/02/08 00:08:46;;;;;;;5.35;2.78;;;4.80;99.90;;;;;;5049910;28;20239;-60
2022/02/08 00:11:12;;;;;;;8.80;2.87;;;4.90;99.90;;;;;;5049857;28;20297;-58
2022/02/08 00:13:38;;;;;;;4.13;1.90;;;4.90;99.90;;;;;;5048977;28;20456;-60
2022/02/08 00:16:04;;;;;;;4.57;2.42;;;4.90;99.90;;;;;;5052248;28;20264;-58
2022/02/08 00:18:30;;;;;;;3.33;1.93;;;4.90;99.90;;;;;;5062328;28;20178;-60
2022/02/08 00:20:55;;;;;;;8.63;2.40;;;4.90;99.90;;;;;;5063585;28;20894;-60
2022/02/08 00:23:21;;;;;;;4.43;2.43;;;4.80;99.90;;;;;;5056822;28;20186;-58
2022/02/08 00:25:46;;;;;;;6.27;1.97;;;4.80;99.90;;;;;;5053848;28;20190;-59
2022/02/08 00:28:12;;;;;;;4.00;2.40;;;4.80;99.90;;;;;;5053564;28;20185;-59
2022/02/08 00:30:37;;;;;;;8.00;2.40;;;4.80;99.90;;;;;;5053405;28;20182;-59
2022/02/08 00:33:03;;;;;;;4.87;2.70;;;4.70;99.90;;;;;;5053609;28;20191;-57
2022/02/08 00:35:29;;;;;;;6.20;2.40;;;4.80;99.90;;;;;;5053268;28;20177;-59
2022/02/08 00:37:54;;;;;;;5.30;2.63;;;4.80;99.90;;;;;;5045224;28;20636;-60
2022/02/08 00:40:21;;;;;;;7.70;2.20;;;4.80;99.90;;;;;;5035383;28;20187;-59
2022/02/08 00:42:46;;;;;;;9.77;2.50;;;4.80;99.90;;;;;;5033783;28;20254;-59
2022/02/08 00:47:54;;;;;;;8.23;2.47;;;4.80;99.90;;;;;;5059236;28;20435;-58
2022/02/08 00:50:20;;;;;;;3.58;2.22;;;4.90;99.90;;;;;;5052571;28;20186;-59
2022/02/08 00:52:45;;;;;;;12.00;2.90;;;4.80;99.90;;;;;;5064191;28;20237;-57
2022/02/08 00:55:12;;;;;;;4.90;2.40;;;4.80;99.90;;;;;;5054103;28;20430;-59
2022/02/08 00:57:38;;;;;;;8.30;3.20;;;4.80;99.90;;;;;;5070194;28;20185;-59
2022/02/08 01:00:07;;;;;;;8.13;2.60;;;4.80;99.90;;;;;;5052591;28;20174;-57
2022/02/08 01:02:33;;;;;;;5.72;2.50;;;4.80;99.90;;;;;;5049379;28;20778;-59
2022/02/08 01:05:02;;;;;;;8.23;3.13;;;4.80;99.90;;;;;;5053374;28;20580;-59
2022/02/08 01:07:28;;;;;;;6.72;3.03;;;4.90;99.90;;;;;;5052363;28;20182;-59
2022/02/08 01:10:00;;;;;;;12.00;3.87;;;4.90;99.90;;;;;;5053310;28;20193;-60
2022/02/08 01:12:30;;;;;;;7.53;3.50;;;4.90;99.90;;;;;;5052094;28;20194;-58
2022/02/08 01:14:58;;;;;;;7.65;3.65;;;4.90;99.90;;;;;;5052941;28;20195;-59
2022/02/08 01:17:25;;;;;;;7.00;4.10;;;5.00;99.90;;;;;;5052766;28;20738;-60
2022/02/08 01:20:10;;;;;;;6.97;4.00;;;5.00;99.90;;;;;;5052877;28;20240;-51
2022/02/08 01:22:38;;;;;;;6.80;4.10;;;4.90;99.90;;;;;;5052761;28;20257;-59
2022/02/08 01:25:06;;;;;;;7.70;3.92;;;4.90;99.90;;;;;;5052189;28;20198;-55
2022/02/08 01:27:36;;;;;;;7.32;4.20;;;4.90;99.90;;;;;;5052022;28;20171;-59
2022/02/08 01:30:11;;;;;;;12.02;5.00;;;4.80;99.90;;;;;;5051678;28;20171;-58
2022/02/08 01:32:55;;;;;;;8.13;4.00;;;4.70;99.90;;;;;;5052446;28;20619;-58
2022/02/08 01:38:11;;;;;;;9.18;4.55;;;4.60;99.90;;;;;;5051461;28;20211;-57
2022/02/08 01:41:02;;;;;;;8.50;4.60;;;4.60;99.90;;;;;;5051525;28;20220;-58
2022/02/08 01:46:24;;;;;;;4.78;4.20;;;4.50;99.90;;;;;;5033125;28;20273;-58
2022/02/08 01:48:57;;;;;;;6.95;4.78;;;4.50;99.90;;;;;;5053081;28;20196;-61
2022/02/08 01:51:23;;;;;;;8.50;4.50;;;4.40;99.90;;;;;;5054369;28;20200;-59
2022/02/08 01:53:48;;;;;;;8.17;4.03;;;4.40;99.90;;;;;;5068030;28;20618;-60
2022/02/08 01:56:14;;;;;;;9.03;4.60;;;4.30;99.90;;;;;;5051058;28;20711;-58
2022/02/08 01:58:40;;;;;;;9.33;5.30;;;4.30;99.90;;;;;;5052125;28;20174;-59
2022/02/08 02:01:07;;;;;;;7.10;4.90;;;4.30;99.90;;;;;;5053651;28;20463;-58
2022/02/08 02:03:34;;;;;;;4.97;4.32;;;4.40;99.90;;;;;;5050911;28;20205;-58
2022/02/08 02:06:00;;;;;;;8.35;4.90;;;4.40;99.90;;;;;;5064827;28;20635;-59
2022/02/08 02:08:26;;;;;;;9.20;4.90;;;4.50;99.90;;;;;;5051060;28;20269;-59
2022/02/08 02:10:51;;;;;;;5.63;4.20;;;4.40;99.90;;;;;;5051075;28;20629;-59
2022/02/08 02:13:42;;;;;;;7.33;4.53;;;4.50;99.90;;;;;;5051856;28;20212;-59
2022/02/08 02:16:05;;;;;;;8.80;5.53;;;4.60;99.90;;;;;;5050755;28;20186;-60
2022/02/08 02:18:31;;;;;;;7.30;5.20;;;4.60;99.90;;;;;;5051088;28;20220;-59
2022/02/08 02:20:56;;;;;;;7.73;4.60;;;4.60;99.90;;;;;;5051544;28;20171;-59
2022/02/08 02:23:22;;;;;;;7.60;4.70;;;4.60;99.90;;;;;;5051523;28;21121;-59
2022/02/08 02:25:47;;;;;;;8.13;5.20;;;4.60;99.90;;;;;;5050310;28;20194;-59
2022/02/08 02:28:13;;;;;;;11.77;5.90;;;4.60;99.90;;;;;;5053408;28;20339;-58
2022/02/08 02:30:38;;;;;;;7.90;5.00;;;4.60;99.90;;;;;;5056155;28;20197;-59
2022/02/08 02:33:07;;;;;;;10.00;4.70;;;4.60;99.90;;;;;;5064982;28;20255;-53
2022/02/08 02:35:33;;;;;;;7.68;4.90;;;4.70;99.90;;;;;;5050937;28;20633;-59
2022/02/08 02:37:59;;;;;;;6.35;4.80;;;4.70;99.90;;;;;;5051098;28;20261;-59
2022/02/08 02:40:26;;;;;;;8.40;5.18;;;4.60;99.90;;;;;;5050478;28;20193;-59
2022/02/08 02:42:53;;;;;;;6.75;4.68;;;4.60;99.90;;;;;;5050520;28;20590;-58
2022/02/08 02:45:22;;;;;;;6.95;5.18;;;4.60;99.90;;;;;;5051089;28;20175;-58
2022/02/08 02:47:52;;;;;;;9.75;5.57;;;4.60;99.90;;;;;;5049950;28;20227;-59
2022/02/08 02:50:19;;;;;;;8.40;5.18;;;4.60;99.90;;;;;;5050348;28;20167;-58
2022/02/08 02:52:45;;;;;;;8.48;5.43;;;4.40;99.90;;;;;;5050964;28;20209;-56
2022/02/08 02:55:15;;;;;;;10.23;5.43;;;4.30;99.90;;;;;;5050525;28;20512;-58
2022/02/08 02:57:47;;;;;;;7.60;4.57;;;4.40;99.90;;;;;;5050958;28;20417;-59
2022/02/08 03:00:26;;;;;;;9.00;5.15;;;4.40;99.90;;;;;;5049671;28;20625;-59
2022/02/08 03:19:27;;;;;;;7.97;5.10;;;4.10;99.90;;;;;;5047923;28;20676;-60
2022/02/08 03:21:52;;;;;;;6.60;5.00;;;4.10;99.90;;;;;;5050248;28;20162;-59
2022/02/08 03:24:18;;;;;;;8.97;5.60;;;4.10;99.90;;;;;;5050278;28;20943;-59
2022/02/08 03:26:43;;;;;;;9.93;5.67;;;4.20;99.90;;;;;;5049969;28;20182;-58
2022/02/08 03:29:09;;;;;;;5.70;5.10;;;4.10;99.90;;;;;;5057467;28;20632;-59
2022/02/08 03:31:34;;;;;;;9.87;5.83;;;4.10;99.90;;;;;;5050373;28;20197;-59
2022/02/08 03:34:00;;;;;;;6.57;5.13;;;4.00;99.90;;;;;;5050470;28;20202;-58
2022/02/08 03:36:26;;;;;;;11.17;5.50;;;4.00;99.90;;;;;;5049737;28;20264;-59
2022/02/08 03:39:14;;;;;;;8.90;5.87;;;4.10;99.90;;;;;;5050631;28;20181;-59
2022/02/08 03:41:47;;;;;;;9.77;5.47;;;4.00;99.90;;;;;;5051772;28;20505;-60
2022/02/08 03:44:18;;;;;;;6.57;5.45;;;4.00;99.90;;;;;;5048770;28;20186;-59
2022/02/08 03:46:44;;;;;;;10.98;5.80;;;3.90;99.90;;;;;;5049779;28;20240;-59
2022/02/08 03:49:10;;;;;;;9.18;6.20;;;3.90;99.90;;;;;;5050215;28;20190;-60
2022/02/08 03:51:49;;;;;;;7.85;5.30;;;3.90;99.90;;;;;;5050051;28;20874;-60
2022/02/08 03:54:16;;;;;;;8.32;5.57;;;3.90;99.90;;;;;;5050342;28;20212;-59
2022/02/08 03:56:42;;;;;;;8.13;5.60;;;3.90;99.90;;;;;;5050070;28;20186;-53
2022/02/08 03:59:07;;;;;;;8.15;5.40;;;4.00;99.90;;;;;;5049315;28;20197;-60
2022/02/08 04:04:30;;;;;;;6.88;5.13;;;4.00;99.90;;;;;;5049926;28;20476;-58
2022/02/08 04:06:59;;;;;;;10.05;5.72;;;4.10;99.90;;;;;;5042003;28;20270;-59
2022/02/08 04:09:25;;;;;;;14.05;5.40;;;4.10;99.90;;;;;;5029889;28;20179;-59
2022/02/08 04:11:57;;;;;;;10.33;6.10;;;4.20;99.90;;;;;;5029605;28;20179;-59
2022/02/08 04:14:40;;;;;;;10.32;5.35;;;4.20;99.90;;;;;;5029132;28;20183;-61
2022/02/08 04:36:27;;;;;;;10.18;5.47;;;4.70;99.90;;;;;;5050039;28;20155;-60
2022/02/08 04:39:00;;;;;;;7.30;5.07;;;4.70;99.90;;;;;;5049787;28;20166;-59
2022/02/08 04:42:06;;;;;;;11.05;5.60;;;4.70;99.90;;;;;;5054157;28;20202;-59
2022/02/08 04:46:54;;;;;;;6.57;5.03;;;4.80;99.90;;;;;;5049012;28;20199;-61
2022/02/08 04:49:19;;;;;;;9.48;5.30;;;4.80;99.90;;;;;;5049450;28;20181;-59
2022/02/08 04:51:50;;;;;;;13.50;5.13;;;4.80;99.90;;;;;;5047536;28;20185;-59
2022/02/08 04:54:36;;;;;;;10.52;5.47;;;4.90;99.90;;;;;;5033417;28;20198;-60
2022/02/08 05:40:50;;;;;;;5.60;4.32;;;5.20;99.90;;;;;;5054039;28;20173;-59
2022/02/08 05:42:41;;;;;;;5.55;4.47;;;5.30;99.90;;;;;;5046242;28;20277;-59
2022/02/08 05:45:32;;;;;;;6.57;4.68;;;5.40;99.90;;;;;;5048490;28;20184;-59
2022/02/08 05:47:57;;;;;;;5.45;4.88;;;5.40;99.90;;;;;;5052095;28;20256;-57
2022/02/08 05:55:23;;;;;;;5.75;4.32;;;5.40;99.90;;;;;;5052430;28;20196;-60
2022/02/08 05:57:51;;;;;;;7.03;4.50;;;5.40;99.90;;;;;;5051472;28;20531;-61
2022/02/08 06:00:17;;;;;;;6.15;4.50;;;5.30;99.90;;;;;;5050640;28;20788;-59
2022/02/08 06:02:42;;;;;;;10.83;4.20;;;5.40;99.90;;;;;;5054296;28;20184;-60
2022/02/08 06:05:13;;;;;;;6.90;4.10;;;5.30;99.90;;;;;;5056046;28;20409;-60
2022/02/08 06:07:39;;;;;;;8.82;5.22;;;5.40;99.90;;;;;;5052471;28;20178;-60
2022/02/08 06:10:05;;;;;;;12.20;5.00;;;5.40;99.90;;;;;;5050448;28;20735;-61
2022/02/08 06:12:30;;;;;;;5.40;3.75;;;5.30;99.90;;;;;;5053267;28;20186;-61
2022/02/08 06:14:59;;;;;;;11.47;4.33;;;5.40;99.90;;;;;;5049152;28;20202;-60
2022/02/08 06:17:25;;;;;;;7.25;4.70;;;5.40;99.90;;;;;;5053318;28;20204;-60
2022/02/08 06:19:55;;;;;;;4.70;4.07;;;5.40;99.90;;;;;;5056262;28;20175;-59
2022/02/08 06:22:21;;;;;;;8.15;4.53;;;5.50;99.90;;;;;;5050697;28;20879;-59
2022/02/08 06:24:46;;;;;;;7.23;4.40;;;5.50;99.90;;;;;;5051106;28;20174;-60
2022/02/08 06:27:12;;;;;;;5.60;4.27;;;5.60;99.90;;;;;;5049713;28;20437;-59
2022/02/08 06:29:37;;;;;;;6.03;3.70;;;5.60;99.90;;;;;;5048732;28;20210;-59
2022/02/08 06:32:03;;;;;;;7.93;4.40;;;5.60;99.90;;;;;;5049390;28;20166;-59
2022/02/08 06:34:31;;;;;;;8.23;4.73;;;5.60;99.90;;;;;;5049205;28;20867;-60
2022/02/08 06:37:03;;;;;;;6.63;4.50;;;5.60;99.90;;;;;;5048923;28;20428;-60
2022/02/08 06:39:34;;;;;;;8.57;4.57;;;5.70;99.90;;;;;;5049111;28;20636;-60
2022/02/08 06:42:00;;;;;;;5.57;4.05;;;5.70;99.90;;;;;;5048955;28;20675;-59
2022/02/08 06:44:25;;;;;;;4.80;3.60;;;5.70;99.90;;;;;;5049367;28;20198;-60
2022/02/08 06:46:51;;;;;;;5.80;3.73;;;5.70;99.90;;;;;;5051378;28;20412;-59
2022/02/08 06:49:17;;;;;;;5.83;3.37;;;5.80;99.90;;;;;;5049508;28;20189;-60
2022/02/08 06:51:43;;;;;;;5.35;3.58;;;5.70;99.90;;;;;;5063480;28;20220;-60
2022/02/08 06:54:08;;;;;;;4.33;3.17;;;5.80;99.90;;;;;;5050954;28;20315;-60
2022/02/08 06:56:34;;;;;;;6.97;3.73;;;5.90;99.90;;;;;;5050183;28;20336;-58
2022/02/08 06:59:06;;;;;;;5.77;3.60;;;5.90;99.90;;;;;;5049636;28;20205;-59
2022/02/08 07:01:33;;;;;;;7.38;3.15;;;5.90;99.90;;;;;;5050567;28;20213;-59
2022/02/08 07:04:00;;;;;;;5.03;3.05;;;6.00;99.90;;;;;;5052832;28;20190;-59
2022/02/08 07:06:26;;;;;;;4.28;3.22;;;6.00;99.90;;;;;;5052277;28;20171;-60
2022/02/08 07:08:51;;;;;;;5.03;2.87;;;6.00;99.90;;;;;;5050758;28;20182;-60
2022/02/08 07:11:17;;;;;;;4.13;3.20;;;6.10;99.90;;;;;;5050931;28;20625;-59
2022/02/08 07:13:45;;;;;;;3.90;3.03;;;6.10;99.90;;;;;;5049969;28;20567;-60
2022/02/08 07:16:13;;;;;;;3.75;2.85;;;6.20;99.90;;;;;;5050093;28;20551;-60
2022/02/08 07:18:39;;;;;;;6.93;3.42;;;6.20;99.90;;;;;;5050771;28;20263;-58
2022/02/08 07:21:09;;;;;;;3.70;2.93;;;6.10;99.90;;;;;;5050495;28;20636;-60
2022/02/08 07:23:35;;;;;;;3.25;2.30;;;6.10;99.90;;;;;;5050627;28;20175;-57
2022/02/08 07:26:01;;;;;;;5.35;3.03;;;6.00;99.90;;;;;;5049027;28;20253;-61
2022/02/08 07:28:27;;;;;;;5.07;3.10;;;6.00;99.90;;;;;;5050750;28;20281;-60
2022/02/08 07:31:00;;;;;;;3.17;2.60;;;6.00;99.90;;;;;;5050487;28;20212;-59
2022/02/08 07:33:26;;;;;;;3.83;2.50;;;6.10;99.90;;;;;;5050271;28;20178;-59
2022/02/08 07:36:05;;;;;;;5.05;2.65;;;6.30;99.90;;;;;;5050140;28;20193;-58
2022/02/08 07:38:36;;;;;;;5.05;2.85;;;6.10;99.90;;;;;;5050173;28;20158;-58
2022/02/08 07:43:28;;;;;;;8.60;2.50;;;6.10;99.90;;;;;;5049336;28;20273;-60
2022/02/08 07:45:55;;;;;;;4.90;3.00;;;6.00;99.90;;;;;;5051307;28;20713;-59
2022/02/08 07:48:20;;;;;;;6.25;3.00;;;6.10;99.90;;;;;;5048944;28;20911;-61
2022/02/08 07:50:50;;;;;;;5.10;2.60;;;6.10;99.90;;;;;;5049798;28;20171;-60
2022/02/08 07:53:15;;;;;;;5.30;2.70;;;6.10;99.90;;;;;;5043174;28;20226;-59
2022/02/08 07:55:41;;;;;;;3.70;2.53;;;6.00;99.90;;;;;;5040124;28;20900;-59
2022/02/08 07:58:07;;;;;;;4.83;2.80;;;6.00;99.90;;;;;;5040798;28;20192;-58
2022/02/08 08:00:33;;;;;;;4.45;2.35;;;6.00;99.90;;;;;;5048284;28;20198;-55
2022/02/08 08:02:58;;;;;;;3.33;2.37;;;6.00;99.90;;;;;;5047342;28;20672;-59
2022/02/08 08:05:26;;;;;;;3.33;2.70;;;5.90;99.90;;;;;;5048181;28;20544;-59
2022/02/08 08:07:52;;;;;;;3.33;2.80;;;5.80;99.90;;;;;;5052843;28;20177;-59
2022/02/08 08:10:20;;;;;;;3.38;3.08;;;5.80;99.90;;;;;;5049931;28;20205;-57
2022/02/08 08:12:49;;;;;;;5.18;2.63;;;5.70;99.90;;;;;;5047978;28;20597;-58
2022/02/08 08:15:36;;;;;;;5.45;2.70;;;5.80;99.90;;;;;;5051851;28;20217;-59
2022/02/08 08:18:17;;;;;;;4.78;2.88;;;5.80;99.90;;;;;;5052395;28;20677;-57
2022/02/08 08:20:43;;;;;;;3.72;2.75;;;6.00;99.90;;;;;;5054917;28;20178;-59
2022/02/08 08:23:09;;;;;;;3.17;2.60;;;6.00;99.90;;;;;;5055954;28;20185;-60
2022/02/08 08:25:34;;;;;;;4.37;2.47;;;5.90;99.90;;;;;;5047639;28;20286;-59
2022/02/08 08:28:00;;;;;;;6.97;2.90;;;6.00;99.90;;;;;;5058234;28;20490;-59
2022/02/08 08:30:26;;;;;;;3.00;2.53;;;6.00;99.90;;;;;;5063319;28;20201;-59
2022/02/08 08:32:52;;;;;;;7.87;2.70;;;6.10;99.90;;;;;;5068842;28;20178;-59
2022/02/08 08:35:20;;;;;;;6.25;2.75;;;6.20;99.90;;;;;;5054268;28;20198;-59
2022/02/08 08:37:57;;;;;;;2.97;2.38;;;6.40;99.90;;;;;;5060808;28;20181;-60
2022/02/08 08:40:50;;;;;;;3.85;2.70;;;6.30;99.90;;;;;;5036955;28;20206;-56
2022/02/08 08:53:24;;;;;;;5.87;2.60;;;6.80;99.90;;;;;;5063136;28;20233;-59
2022/02/08 08:55:50;;;;;;;2.67;2.43;;;6.90;99.90;;;;;;5058235;28;20423;-60
2022/02/08 08:58:15;;;;;;;3.80;2.33;;;7.00;99.90;;;;;;5071620;28;20430;-59
2022/02/08 09:00:41;;;;;;;3.83;2.73;;;7.00;99.90;;;;;;5060990;28;20212;-59
2022/02/08 09:03:06;;;;;;;2.73;2.50;;;7.00;99.90;;;;;;5067603;28;20901;-61
2022/02/08 09:05:32;;;;;;;5.37;2.70;;;7.10;99.90;;;;;;5061451;28;20273;-60
2022/02/08 09:07:58;;;;;;;4.47;2.67;;;7.20;99.90;;;;;;5065256;28;20204;-57
2022/02/08 09:10:30;;;;;;;2.93;2.50;;;7.20;99.90;;;;;;5052235;28;20189;-60
2022/02/08 09:31:02;;;;;;;4.57;2.40;;;7.60;99.90;;;;;;5069509;28;20191;-59
2022/02/08 09:33:28;;;;;;;4.40;3.23;;;7.60;99.90;;;;;;5052299;28;20966;-61
2022/02/08 09:35:55;;;;;;;5.93;3.00;;;7.50;99.90;;;;;;5050808;28;20435;-59
2022/02/08 09:38:21;;;;;;;5.57;2.70;;;7.60;99.90;;;;;;5050712;28;20162;-60
2022/02/08 09:40:50;;;;;;;7.93;3.17;;;7.50;99.90;;;;;;5050637;28;20512;-58
2022/02/08 09:43:17;;;;;;;4.23;3.23;;;7.50;99.90;;;;;;5050125;28;20492;-57
2022/02/08 09:45:45;;;;;;;2.67;2.42;;;7.50;99.90;;;;;;5050566;28;20449;-59
2022/02/08 09:48:18;;;;;;;2.45;2.20;;;7.30;99.90;;;;;;5050410;28;20321;-59
2022/02/08 09:50:46;;;;;;;4.50;2.57;;;7.20;99.90;;;;;;5048496;28;20170;-61
2022/02/08 09:53:18;;;;;;;3.20;2.40;;;7.30;99.90;;;;;;5049963;28;20464;-60
2022/02/08 09:55:44;;;;;;;4.40;2.45;;;7.30;99.90;;;;;;5047828;28;20171;-58
2022/02/08 09:58:10;;;;;;;4.50;2.93;;;7.30;99.90;;;;;;5050420;28;20189;-58
2022/02/08 10:00:38;;;;;;;2.58;2.00;;;7.30;99.90;;;;;;5066373;28;20197;-57
2022/02/08 10:03:05;;;;;;;5.40;4.20;;;7.40;99.90;;;;;;5067955;28;20235;-59
2022/02/08 10:05:51;;;;;;;3.33;2.27;;;7.50;99.90;;;;;;5053405;28;20435;-60
2022/02/08 10:08:17;;;;;;;4.20;2.07;;;7.60;99.90;;;;;;5048453;28;20519;-59
2022/02/08 10:10:43;;;;;;;3.70;2.20;;;7.70;99.90;;;;;;5049813;28;20508;-60
2022/02/08 10:19:54;;;;;;;3.93;2.07;;;8.00;99.90;;;;;;5049801;28;20415;-60
2022/02/08 10:21:48;;;;;;;2.70;2.27;;;8.10;99.90;;;;;;5046764;28;20572;-58
2022/02/08 10:24:16;;;;;;;5.23;2.87;;;8.20;99.90;;;;;;5049432;28;20464;-58
2022/02/08 10:29:25;;;;;;;4.33;2.87;;;8.30;99.90;;;;;;5065691;28;20423;-59
2022/02/08 10:40:19;;;;;;;3.27;2.30;;;8.40;99.90;;;;;;5038437;28;20768;-54
2022/02/08 10:42:56;;;;;;;2.10;1.90;;;8.40;99.90;;;;;;5048484;28;20420;-59
2022/02/08 10:45:23;;;;;;;3.57;2.73;;;8.50;99.90;;;;;;5050625;28;20423;-59
2022/02/08 10:48:01;;;;;;;2.33;2.13;;;8.40;99.90;;;;;;5061733;28;20786;-59
2022/02/08 10:50:30;;;;;;;3.60;2.17;;;8.50;99.90;;;;;;5052514;28;20479;-59
2022/02/08 10:52:57;;;;;;;4.60;2.30;;;8.40;99.90;;;;;;5052154;28;20780;-54
2022/02/08 10:58:04;;;;;;;2.97;2.37;;;8.30;99.90;;;;;;5059562;28;20953;-58
2022/02/08 11:00:52;;;;;;;3.23;2.77;;;8.20;99.90;;;;;;5068058;28;21278;-59
2022/02/08 11:03:27;;;;;;;2.47;2.27;;;8.30;99.90;;;;;;5043937;28;21150;-56
2022/02/08 11:08:44;;;;;;;5.37;2.50;;;8.30;99.90;;;;;;5049155;28;20432;-57
2022/02/08 11:11:32;;;;;;;2.83;2.53;;;8.30;99.90;;;;;;5049058;28;20424;-58
2022/02/08 11:14:15;;;;;;;3.60;2.30;;;8.40;99.90;;;;;;5038790;28;20449;-58
2022/02/08 11:25:12;;;;;;;2.57;2.37;;;8.50;99.90;;;;;;5047202;28;21158;-59
2022/02/08 11:27:47;;;;;;;4.23;2.53;;;8.40;99.90;;;;;;5047648;28;20455;-59
2022/02/08 11:30:20;;;;;;;4.07;2.30;;;8.40;99.90;;;;;;5049750;28;20420;-58
2022/02/08 11:42:50;;;;;;;2.73;2.53;;;8.50;99.90;;;;;;5040444;28;20829;-56
2022/02/08 11:44:26;;;;;;;3.50;2.80;;;8.50;99.90;;;;;;5048473;28;20471;-61
2022/02/08 11:52:29;;;;;;;3.30;3.00;;;8.60;99.90;;;;;;5062940;28;20459;-59
2022/02/08 12:00:36;;;;;;;3.60;2.80;;;8.70;99.90;;;;;;5049528;28;20444;-59
2022/02/08 12:03:38;;;;;;;2.30;2.10;;;8.80;99.90;;;;;;5048532;28;20977;-59
2022/02/08 12:06:47;;;;;;;3.30;2.47;;;8.80;99.90;;;;;;5050813;28;20521;-59
2022/02/08 12:08:57;;;;;;;2.73;2.53;;;8.80;99.90;;;;;;5059962;28;20440;-55
2022/02/08 12:33:57;;;;;;;2.70;2.47;;;9.20;99.90;;;;;;5059521;28;20482;-60
2022/02/08 12:36:29;;;;;;;3.17;2.50;;;9.00;99.90;;;;;;5052144;28;20413;-59
2022/02/08 12:50:49;;;;;;;2.90;2.70;;;9.10;99.90;;;;;;5052372;28;21004;-60
2022/02/08 12:59:04;;;;;;;2.93;2.63;;;9.40;99.90;;;;;;5052742;28;20401;-57
2022/02/08 13:14:48;;;;;;;2.57;2.37;;;9.50;99.90;;;;;;5051295;28;20239;-58
2022/02/08 13:24:40;;;;;;;2.30;2.10;;;9.30;99.90;;;;;;5052212;28;21006;-57
2022/02/08 14:04:15;;;;;;;2.33;2.13;;;9.30;99.90;;;;;;5050848;28;20447;-59
2022/02/08 14:09:22;;;;;;;1.90;1.70;;;9.40;99.90;;;;;;5049167;28;20436;-60
2022/02/08 14:12:20;;;;;;;2.00;1.90;;;9.30;99.90;;;;;;5030941;28;20469;-56
2022/02/08 14:30:40;;;;;;;2.70;2.20;;;9.00;99.90;;;;;;5030854;28;20705;-53
2022/02/08 15:05:44;;;;;;;2.50;2.13;;;9.00;99.90;;;;;;5026675;28;20436;-55
2022/02/08 15:08:15;;;;;;;2.67;2.13;;;9.00;99.90;;;;;;5049238;28;20458;-54
2022/02/08 15:10:53;;;;;;;2.50;2.30;;;9.10;99.90;;;;;;5050107;28;20397;-55
2022/02/08 15:13:23;;;;;;;2.90;2.20;;;9.10;99.90;;;;;;5067127;28;20890;-57
2022/02/08 15:16:04;;;;;;;3.53;2.97;;;9.10;99.90;;;;;;5070068;28;20458;-55
2022/02/08 15:18:32;;;;;;;3.70;2.87;;;9.10;99.90;;;;;;5048552;28;20452;-56
2022/02/08 15:20:59;;;;;;;2.90;2.70;;;9.10;99.90;;;;;;5049077;28;20416;-56
2022/02/08 15:23:25;;;;;;;3.23;2.43;;;9.10;99.90;;;;;;5048504;28;20424;-51
2022/02/08 15:25:54;;;;;;;3.03;2.50;;;9.10;99.90;;;;;;5048366;28;20424;-55
2022/02/08 15:28:23;;;;;;;2.80;2.60;;;9.10;99.90;;;;;;5049393;28;20405;-55
2022/02/08 15:30:49;;;;;;;2.30;2.20;;;9.10;99.90;;;;;;5049105;28;20451;-54
2022/02/08 15:33:14;;;;;;;2.53;2.30;;;9.10;99.90;;;;;;5048837;28;20857;-55
2022/02/08 15:35:40;;;;;;;3.93;2.33;;;9.10;99.90;;;;;;5054259;28;20429;-52
2022/02/08 15:38:05;;;;;;;3.07;2.60;;;9.10;99.90;;;;;;5066969;28;20192;-53
2022/02/08 15:40:35;;;;;;;2.60;2.40;;;9.00;99.90;;;;;;5049214;28;20786;-57
2022/02/08 15:43:02;;;;;;;2.80;2.60;;;9.00;99.90;;;;;;5059646;28;20236;-53
2022/02/08 15:45:52;;;;;;;2.10;1.90;;;9.10;99.90;;;;;;5048943;28;20466;-53
2022/02/08 15:48:21;;;;;;;3.03;2.73;;;9.10;99.90;;;;;;5051436;28;20497;-53
2022/02/08 15:51:38;;;;;;;2.60;2.40;;;9.10;99.90;;;;;;5063073;28;20444;-54
2022/02/08 16:09:45;;;;;;;3.00;2.73;;;9.00;99.90;;;;;;5047873;28;20425;-53
2022/02/08 16:12:30;;;;;;;4.67;2.47;;;9.00;99.90;;;;;;5045336;28;20260;-53
2022/02/08 16:28:29;;;;;;;16.63;3.00;;;9.00;99.90;;;;;;5045575;28;20429;-54
2022/02/08 16:46:08;;;;;;;4.30;3.33;;;9.00;99.90;;;;;;5046255;28;20423;-56
2022/02/08 16:51:24;;;;;;;4.17;2.90;;;9.10;99.90;;;;;;5055941;28;20427;-53
2022/02/08 17:00:23;;;;;;;3.23;2.93;;;9.20;99.90;;;;;;5048883;28;21040;-58
2022/02/08 17:02:51;;;;;;;4.20;3.17;;;9.10;99.90;;;;;;5051823;28;20494;-54
2022/02/08 17:05:17;;;;;;;3.00;2.80;;;9.10;99.90;;;;;;5053007;28;20420;-53
2022/02/08 17:07:43;;;;;;;4.10;3.27;;;9.10;99.90;;;;;;5051597;28;20451;-52
2022/02/08 17:10:22;;;;;;;3.63;3.17;;;9.20;99.90;;;;;;5052971;28;20479;-56
2022/02/08 17:12:57;;;;;;;3.53;2.80;;;9.20;99.90;;;;;;5039258;28;20251;-55
2022/02/08 17:44:58;;;;;;;6.27;3.70;;;9.10;99.90;;;;;;5072155;28;20812;-53
2022/02/08 17:46:23;;;;;;;4.90;4.17;;;9.10;99.90;;;;;;5049074;28;20482;-52
2022/02/08 17:48:50;;;;;;;3.97;3.50;;;9.00;99.90;;;;;;5052135;28;20433;-57
2022/02/08 17:51:16;;;;;;;4.67;4.17;;;9.10;99.90;;;;;;5061848;28;20901;-55
2022/02/08 17:53:42;;;;;;;5.37;4.43;;;9.10;99.90;;;;;;5060102;28;20485;-57
2022/02/08 17:56:08;;;;;;;4.63;3.90;;;9.10;99.90;;;;;;5049906;28;20447;-56
2022/02/08 17:58:35;;;;;;;6.47;4.77;;;9.10;99.90;;;;;;5052584;28;20671;-54
2022/02/08 18:01:01;;;;;;;5.17;4.10;;;9.00;99.90;;;;;;5051844;28;20453;-54
2022/02/08 18:03:27;;;;;;;5.00;4.20;;;9.00;99.90;;;;;;5047177;28;20863;-54
2022/02/08 18:05:52;;;;;;;5.03;4.23;;;9.00;99.90;;;;;;5051401;28;20181;-54
2022/02/08 18:08:20;;;;;;;5.53;4.70;;;8.90;99.90;;;;;;5050746;28;20429;-56
2022/02/08 18:10:55;;;;;;;5.40;4.63;;;9.00;99.90;;;;;;5050995;28;20182;-54
2022/02/08 18:13:21;;;;;;;4.50;4.00;;;9.10;99.90;;;;;;5060575;28;20417;-55
2022/02/08 18:15:47;;;;;;;5.97;4.30;;;9.10;99.90;;;;;;5050023;28;20429;-54
2022/02/08 18:18:46;;;;;;;5.80;5.10;;;9.00;99.90;;;;;;5051152;28;20506;-55
2022/02/08 18:21:17;;;;;;;4.90;4.40;;;9.00;99.90;;;;;;5043205;28;21169;-57
2022/02/08 19:07:54;;;;;;;5.33;4.30;;;9.00;99.90;;;;;;5050749;28;20425;-56
2022/02/08 19:18:17;;;;;;;6.90;3.83;;;8.90;99.90;;;;;;5050971;28;20858;-55
2022/02/08 19:20:41;;;;;;;4.37;3.97;;;8.90;99.90;;;;;;5050374;28;20186;-56
2022/02/08 19:23:07;;;;;;;3.90;3.53;;;8.90;99.90;;;;;;5049894;28;20473;-56
2022/02/08 19:25:32;;;;;;;4.43;4.00;;;8.90;99.90;;;;;;5049385;28;20891;-59
2022/02/08 19:27:58;;;;;;;5.43;5.03;;;8.90;99.90;;;;;;5049927;28;20533;-59
2022/02/08 19:30:24;;;;;;;5.53;4.10;;;9.00;99.90;;;;;;5047354;28;20604;-58
2022/02/08 19:32:49;;;;;;;5.53;4.40;;;9.00;99.90;;;;;;5048404;28;20252;-52
2022/02/08 19:35:15;;;;;;;6.70;4.77;;;9.00;99.90;;;;;;5054854;28;20206;-57
2022/02/08 19:37:44;;;;;;;4.40;4.00;;;9.00;99.90;;;;;;5059043;28;20173;-56
2022/02/08 19:40:10;;;;;;;4.57;3.90;;;9.00;99.90;;;;;;5054841;28;20428;-56
2022/02/08 19:42:36;;;;;;;4.57;4.17;;;9.00;99.90;;;;;;5058254;28;20535;-55
2022/02/08 19:45:13;;;;;;;4.43;4.03;;;9.10;99.90;;;;;;5062811;28;20453;-57
2022/02/08 19:47:39;;;;;;;5.50;3.97;;;9.10;99.90;;;;;;5058979;28;20184;-56
2022/02/08 19:50:06;;;;;;;5.90;4.57;;;9.10;99.90;;;;;;5056221;28;20482;-58
2022/02/08 19:52:33;;;;;;;7.40;4.90;;;9.10;99.90;;;;;;5069566;28;20471;-57
2022/02/08 19:55:21;;;;;;;7.83;5.60;;;9.10;99.90;;;;;;5058600;28;20572;-58
2022/02/08 19:57:51;;;;;;;5.10;4.60;;;9.10;99.90;;;;;;5047076;28;20412;-60
2022/02/08 20:00:21;;;;;;;5.27;4.47;;;9.10;99.90;;;;;;5056244;28;20420;-57
2022/02/08 20:02:51;;;;;;;6.13;4.80;;;9.10;99.90;;;;;;5062070;28;20423;-56
2022/02/08 20:05:17;;;;;;;5.77;4.57;;;9.10;99.90;;;;;;5061468;28;20437;-53
2022/02/08 20:07:43;;;;;;;6.30;4.43;;;9.10;99.90;;;;;;5045398;28;20441;-62
2022/02/08 20:10:09;;;;;;;5.30;4.80;;;9.20;99.90;;;;;;5060107;28;20537;-57
2022/02/08 20:12:35;;;;;;;7.83;4.60;;;9.20;99.90;;;;;;5049010;28;20548;-55
2022/02/08 20:15:05;;;;;;;7.57;5.13;;;9.10;99.90;;;;;;5032933;28;20552;-55
2022/02/08 20:17:31;;;;;;;5.97;5.00;;;9.20;99.90;;;;;;5048480;28;20185;-56
2022/02/08 20:19:59;;;;;;;5.90;4.80;;;9.10;99.90;;;;;;5053691;28;20428;-51
2022/02/08 20:22:24;;;;;;;5.73;4.37;;;9.10;99.90;;;;;;5060856;28;20432;-56
2022/02/08 20:24:52;;;;;;;5.63;4.90;;;9.10;99.90;;;;;;5049555;28;20445;-56
2022/02/08 20:29:46;;;;;;;4.90;4.40;;;9.20;99.90;;;;;;5067691;28;20979;-54
2022/02/08 20:32:12;;;;;;;5.30;4.70;;;9.20;99.90;;;;;;5069519;28;20204;-58
2022/02/08 20:34:39;;;;;;;5.60;4.53;;;9.20;99.90;;;;;;5072503;28;20459;-54
2022/02/08 20:37:05;;;;;;;5.30;4.67;;;9.10;99.90;;;;;;5058861;28;20420;-53
2022/02/08 20:39:31;;;;;;;5.50;5.00;;;9.20;99.90;;;;;;5073264;28;20415;-54
2022/02/08 20:41:58;;;;;;;5.20;4.70;;;9.20;99.90;;;;;;5073294;28;20182;-51
2022/02/08 20:44:26;;;;;;;5.20;4.70;;;9.20;99.90;;;;;;5073287;28;20486;-56
2022/02/08 20:47:07;;;;;;;7.43;4.47;;;9.20;99.90;;;;;;5073232;28;20419;-56
2022/02/08 20:49:32;;;;;;;5.53;4.30;;;9.10;99.90;;;;;;5065091;28;20476;-59
2022/02/08 20:51:58;;;;;;;5.43;4.07;;;9.20;99.90;;;;;;5052438;28;20560;-55
2022/02/08 20:54:27;;;;;;;4.87;4.37;;;9.20;99.90;;;;;;5064174;28;20215;-54